sensor_id;sensor_type;location;lat;lon;timestamp;P1;durP1;ratioP1;P2;durP2;ratioP2
5912;SDS011;2982;42.684;23.356;2022-09-03T00:02:06;7.07;;;5.97;;
5912;SDS011;2982;42.684;23.356;2022-09-03T00:12:55;6.57;;;6.03;;
5912;SDS011;2982;42.684;23.356;2022-09-03T00:15:23;9.43;;;6.22;;
5912;SDS011;2982;42.684;23.356;2022-09-03T00:17:53;6.60;;;6.10;;
5912;SDS011;2982;42.684;23.356;2022-09-03T00:23:07;6.97;;;6.38;;
5912;SDS011;2982;42.684;23.356;2022-09-03T00:25:57;6.82;;;6.32;;
5912;SDS011;2982;42.684;23.356;2022-09-03T00:28:28;6.75;;;6.10;;
5912;SDS011;2982;42.684;23.356;2022-09-03T00:31:10;7.80;;;6.45;;
5912;SDS011;2982;42.684;23.356;2022-09-03T00:33:59;8.25;;;7.43;;
5912;SDS011;2982;42.684;23.356;2022-09-03T00:38:57;8.00;;;5.93;;
5912;SDS011;2982;42.684;23.356;2022-09-03T00:41:32;6.30;;;5.80;;
5912;SDS011;2982;42.684;23.356;2022-09-03T00:49:21;6.45;;;6.00;;
5912;SDS011;2982;42.684;23.356;2022-09-03T00:57:29;6.00;;;5.60;;
5912;SDS011;2982;42.684;23.356;2022-09-03T01:00:22;6.10;;;5.70;;
5912;SDS011;2982;42.684;23.356;2022-09-03T01:03:08;7.05;;;6.53;;
5912;SDS011;2982;42.684;23.356;2022-09-03T01:13:08;6.45;;;5.85;;
5912;SDS011;2982;42.684;23.356;2022-09-03T01:18:19;6.63;;;6.07;;
5912;SDS011;2982;42.684;23.356;2022-09-03T01:23:41;6.30;;;5.88;;
5912;SDS011;2982;42.684;23.356;2022-09-03T01:37:01;5.90;;;5.35;;
5912;SDS011;2982;42.684;23.356;2022-09-03T01:45:50;6.82;;;6.32;;
5912;SDS011;2982;42.684;23.356;2022-09-03T01:54:05;6.40;;;5.97;;
5912;SDS011;2982;42.684;23.356;2022-09-03T02:04:25;10.20;;;7.38;;
5912;SDS011;2982;42.684;23.356;2022-09-03T02:06:52;6.65;;;6.15;;
5912;SDS011;2982;42.684;23.356;2022-09-03T02:09:19;6.80;;;6.35;;
5912;SDS011;2982;42.684;23.356;2022-09-03T02:11:45;8.20;;;7.38;;
5912;SDS011;2982;42.684;23.356;2022-09-03T02:14:17;6.63;;;6.15;;
5912;SDS011;2982;42.684;23.356;2022-09-03T02:16:42;7.32;;;6.72;;
5912;SDS011;2982;42.684;23.356;2022-09-03T02:19:09;6.40;;;5.95;;
5912;SDS011;2982;42.684;23.356;2022-09-03T02:21:43;8.32;;;7.18;;
5912;SDS011;2982;42.684;23.356;2022-09-03T02:24:13;7.50;;;6.90;;
5912;SDS011;2982;42.684;23.356;2022-09-03T02:26:39;7.03;;;6.32;;
5912;SDS011;2982;42.684;23.356;2022-09-03T02:29:04;6.68;;;6.25;;
5912;SDS011;2982;42.684;23.356;2022-09-03T02:31:30;8.23;;;7.43;;
5912;SDS011;2982;42.684;23.356;2022-09-03T02:33:55;7.80;;;7.10;;
5912;SDS011;2982;42.684;23.356;2022-09-03T02:36:27;8.35;;;7.40;;
5912;SDS011;2982;42.684;23.356;2022-09-03T02:38:56;7.57;;;6.90;;
5912;SDS011;2982;42.684;23.356;2022-09-03T02:41:21;7.90;;;7.10;;
5912;SDS011;2982;42.684;23.356;2022-09-03T02:43:48;7.22;;;6.32;;
5912;SDS011;2982;42.684;23.356;2022-09-03T02:46:22;7.53;;;6.93;;
5912;SDS011;2982;42.684;23.356;2022-09-03T02:48:49;8.13;;;7.30;;
5912;SDS011;2982;42.684;23.356;2022-09-03T02:51:15;7.80;;;7.20;;
5912;SDS011;2982;42.684;23.356;2022-09-03T02:53:41;7.68;;;7.07;;
5912;SDS011;2982;42.684;23.356;2022-09-03T02:56:06;7.25;;;6.75;;
5912;SDS011;2982;42.684;23.356;2022-09-03T02:58:32;7.55;;;6.95;;
5912;SDS011;2982;42.684;23.356;2022-09-03T03:00:57;7.30;;;6.72;;
5912;SDS011;2982;42.684;23.356;2022-09-03T03:03:22;8.05;;;7.45;;
5912;SDS011;2982;42.684;23.356;2022-09-03T03:08:15;7.95;;;7.25;;
5912;SDS011;2982;42.684;23.356;2022-09-03T03:10:41;8.75;;;7.90;;
5912;SDS011;2982;42.684;23.356;2022-09-03T03:13:07;8.25;;;7.45;;
5912;SDS011;2982;42.684;23.356;2022-09-03T03:15:32;10.68;;;8.13;;
5912;SDS011;2982;42.684;23.356;2022-09-03T03:17:57;7.95;;;7.25;;
5912;SDS011;2982;42.684;23.356;2022-09-03T03:20:23;8.48;;;7.80;;
5912;SDS011;2982;42.684;23.356;2022-09-03T03:22:48;8.60;;;7.80;;
5912;SDS011;2982;42.684;23.356;2022-09-03T03:25:14;8.98;;;8.20;;
5912;SDS011;2982;42.684;23.356;2022-09-03T03:27:39;8.07;;;7.40;;
5912;SDS011;2982;42.684;23.356;2022-09-03T03:30:05;8.48;;;7.15;;
5912;SDS011;2982;42.684;23.356;2022-09-03T03:32:30;8.23;;;7.53;;
5912;SDS011;2982;42.684;23.356;2022-09-03T03:34:56;8.50;;;7.60;;
5912;SDS011;2982;42.684;23.356;2022-09-03T03:37:21;11.23;;;7.78;;
5912;SDS011;2982;42.684;23.356;2022-09-03T03:39:46;7.25;;;6.72;;
5912;SDS011;2982;42.684;23.356;2022-09-03T03:42:11;11.68;;;7.15;;
5912;SDS011;2982;42.684;23.356;2022-09-03T03:44:37;7.47;;;6.97;;
5912;SDS011;2982;42.684;23.356;2022-09-03T03:47:02;7.85;;;7.22;;
5912;SDS011;2982;42.684;23.356;2022-09-03T03:49:27;7.93;;;7.13;;
5912;SDS011;2982;42.684;23.356;2022-09-03T03:51:53;7.30;;;6.72;;
5912;SDS011;2982;42.684;23.356;2022-09-03T03:54:18;7.13;;;6.63;;
5912;SDS011;2982;42.684;23.356;2022-09-03T03:56:43;7.28;;;6.75;;
5912;SDS011;2982;42.684;23.356;2022-09-03T03:59:08;7.38;;;6.82;;
5912;SDS011;2982;42.684;23.356;2022-09-03T04:01:34;7.45;;;6.85;;
5912;SDS011;2982;42.684;23.356;2022-09-03T04:03:59;7.15;;;6.57;;
5912;SDS011;2982;42.684;23.356;2022-09-03T04:06:24;7.65;;;7.00;;
5912;SDS011;2982;42.684;23.356;2022-09-03T04:08:50;8.02;;;7.35;;
5912;SDS011;2982;42.684;23.356;2022-09-03T04:11:17;8.18;;;7.53;;
5912;SDS011;2982;42.684;23.356;2022-09-03T04:13:45;7.32;;;6.65;;
5912;SDS011;2982;42.684;23.356;2022-09-03T04:16:12;7.25;;;6.55;;
5912;SDS011;2982;42.684;23.356;2022-09-03T04:18:46;7.82;;;7.07;;
5912;SDS011;2982;42.684;23.356;2022-09-03T04:21:13;7.30;;;6.60;;
5912;SDS011;2982;42.684;23.356;2022-09-03T04:23:41;12.57;;;7.93;;
5912;SDS011;2982;42.684;23.356;2022-09-03T04:26:09;6.90;;;6.38;;
5912;SDS011;2982;42.684;23.356;2022-09-03T04:28:37;8.90;;;8.20;;
5912;SDS011;2982;42.684;23.356;2022-09-03T04:31:06;7.22;;;6.63;;
5912;SDS011;2982;42.684;23.356;2022-09-03T04:33:33;7.90;;;7.13;;
5912;SDS011;2982;42.684;23.356;2022-09-03T04:38:39;8.15;;;7.35;;
5912;SDS011;2982;42.684;23.356;2022-09-03T04:41:06;7.95;;;7.35;;
5912;SDS011;2982;42.684;23.356;2022-09-03T04:43:33;7.45;;;6.85;;
5912;SDS011;2982;42.684;23.356;2022-09-03T04:46:00;7.53;;;6.93;;
5912;SDS011;2982;42.684;23.356;2022-09-03T04:48:27;7.13;;;6.63;;
5912;SDS011;2982;42.684;23.356;2022-09-03T04:50:53;7.90;;;7.18;;
5912;SDS011;2982;42.684;23.356;2022-09-03T04:53:19;6.68;;;6.18;;
5912;SDS011;2982;42.684;23.356;2022-09-03T04:55:44;7.68;;;6.97;;
5912;SDS011;2982;42.684;23.356;2022-09-03T04:58:10;8.30;;;7.65;;
5912;SDS011;2982;42.684;23.356;2022-09-03T05:00:36;7.68;;;7.05;;
5912;SDS011;2982;42.684;23.356;2022-09-03T05:03:01;6.72;;;6.28;;
5912;SDS011;2982;42.684;23.356;2022-09-03T05:05:27;7.45;;;6.78;;
5912;SDS011;2982;42.684;23.356;2022-09-03T05:07:52;7.03;;;6.43;;
5912;SDS011;2982;42.684;23.356;2022-09-03T05:10:22;7.28;;;6.68;;
5912;SDS011;2982;42.684;23.356;2022-09-03T05:12:56;6.88;;;6.38;;
5912;SDS011;2982;42.684;23.356;2022-09-03T05:15:22;6.70;;;6.20;;
5912;SDS011;2982;42.684;23.356;2022-09-03T05:17:47;6.85;;;6.35;;
5912;SDS011;2982;42.684;23.356;2022-09-03T05:20:13;7.25;;;6.75;;
5912;SDS011;2982;42.684;23.356;2022-09-03T05:22:38;6.95;;;6.18;;
5912;SDS011;2982;42.684;23.356;2022-09-03T05:25:03;6.55;;;6.05;;
5912;SDS011;2982;42.684;23.356;2022-09-03T05:27:29;7.65;;;6.90;;
5912;SDS011;2982;42.684;23.356;2022-09-03T05:29:55;5.57;;;5.28;;
5912;SDS011;2982;42.684;23.356;2022-09-03T05:32:20;6.63;;;6.13;;
5912;SDS011;2982;42.684;23.356;2022-09-03T05:34:46;6.18;;;5.78;;
5912;SDS011;2982;42.684;23.356;2022-09-03T05:37:11;5.80;;;5.40;;
5912;SDS011;2982;42.684;23.356;2022-09-03T05:39:36;5.00;;;4.45;;
5912;SDS011;2982;42.684;23.356;2022-09-03T05:42:02;6.38;;;5.95;;
5912;SDS011;2982;42.684;23.356;2022-09-03T05:44:27;6.78;;;6.28;;
5912;SDS011;2982;42.684;23.356;2022-09-03T05:46:52;6.90;;;6.15;;
5912;SDS011;2982;42.684;23.356;2022-09-03T05:49:18;7.28;;;6.72;;
5912;SDS011;2982;42.684;23.356;2022-09-03T05:51:43;6.93;;;6.35;;
5912;SDS011;2982;42.684;23.356;2022-09-03T05:54:08;6.88;;;6.45;;
5912;SDS011;2982;42.684;23.356;2022-09-03T05:56:35;6.32;;;5.72;;
5912;SDS011;2982;42.684;23.356;2022-09-03T05:59:03;6.63;;;5.78;;
5912;SDS011;2982;42.684;23.356;2022-09-03T06:01:31;7.32;;;6.68;;
5912;SDS011;2982;42.684;23.356;2022-09-03T06:04:06;7.55;;;6.45;;
5912;SDS011;2982;42.684;23.356;2022-09-03T06:06:37;11.20;;;8.68;;
5912;SDS011;2982;42.684;23.356;2022-09-03T06:09:05;9.02;;;7.63;;
5912;SDS011;2982;42.684;23.356;2022-09-03T06:11:38;6.78;;;6.18;;
5912;SDS011;2982;42.684;23.356;2022-09-03T06:14:05;6.00;;;5.53;;
5912;SDS011;2982;42.684;23.356;2022-09-03T06:16:33;6.18;;;5.78;;
5912;SDS011;2982;42.684;23.356;2022-09-03T06:19:00;5.57;;;5.28;;
5912;SDS011;2982;42.684;23.356;2022-09-03T06:21:26;6.97;;;6.47;;
5912;SDS011;2982;42.684;23.356;2022-09-03T06:23:53;6.20;;;5.70;;
5912;SDS011;2982;42.684;23.356;2022-09-03T06:26:20;7.40;;;6.68;;
5912;SDS011;2982;42.684;23.356;2022-09-03T06:28:46;6.80;;;6.30;;
5912;SDS011;2982;42.684;23.356;2022-09-03T06:31:12;7.35;;;6.85;;
5912;SDS011;2982;42.684;23.356;2022-09-03T06:33:42;6.78;;;6.18;;
5912;SDS011;2982;42.684;23.356;2022-09-03T06:36:11;6.80;;;6.32;;
5912;SDS011;2982;42.684;23.356;2022-09-03T06:38:39;7.13;;;5.65;;
5912;SDS011;2982;42.684;23.356;2022-09-03T06:41:06;6.18;;;5.78;;
5912;SDS011;2982;42.684;23.356;2022-09-03T06:43:34;6.97;;;6.32;;
5912;SDS011;2982;42.684;23.356;2022-09-03T06:46:09;7.13;;;6.45;;
5912;SDS011;2982;42.684;23.356;2022-09-03T06:48:36;6.45;;;6.05;;
5912;SDS011;2982;42.684;23.356;2022-09-03T06:51:07;5.68;;;5.32;;
5912;SDS011;2982;42.684;23.356;2022-09-03T06:53:34;6.63;;;6.03;;
5912;SDS011;2982;42.684;23.356;2022-09-03T06:56:03;6.72;;;6.28;;
5912;SDS011;2982;42.684;23.356;2022-09-03T06:58:31;5.65;;;5.35;;
5912;SDS011;2982;42.684;23.356;2022-09-03T07:01:04;6.75;;;6.18;;
5912;SDS011;2982;42.684;23.356;2022-09-03T07:03:31;5.82;;;5.38;;
5912;SDS011;2982;42.684;23.356;2022-09-03T07:06:00;6.47;;;5.88;;
5912;SDS011;2982;42.684;23.356;2022-09-03T07:08:27;6.18;;;5.68;;
5912;SDS011;2982;42.684;23.356;2022-09-03T07:10:52;7.47;;;6.95;;
5912;SDS011;2982;42.684;23.356;2022-09-03T07:13:18;6.57;;;5.93;;
5912;SDS011;2982;42.684;23.356;2022-09-03T07:15:43;6.57;;;5.95;;
5912;SDS011;2982;42.684;23.356;2022-09-03T07:18:08;7.00;;;6.43;;
5912;SDS011;2982;42.684;23.356;2022-09-03T07:20:34;6.78;;;6.18;;
5912;SDS011;2982;42.684;23.356;2022-09-03T07:22:59;6.85;;;6.30;;
5912;SDS011;2982;42.684;23.356;2022-09-03T07:25:24;5.97;;;5.57;;
5912;SDS011;2982;42.684;23.356;2022-09-03T07:27:50;6.03;;;5.60;;
5912;SDS011;2982;42.684;23.356;2022-09-03T07:30:16;6.05;;;5.65;;
5912;SDS011;2982;42.684;23.356;2022-09-03T07:32:41;5.22;;;4.93;;
5912;SDS011;2982;42.684;23.356;2022-09-03T07:35:06;5.80;;;5.40;;
5912;SDS011;2982;42.684;23.356;2022-09-03T07:37:32;6.70;;;5.60;;
5912;SDS011;2982;42.684;23.356;2022-09-03T07:39:57;5.88;;;5.47;;
5912;SDS011;2982;42.684;23.356;2022-09-03T07:42:22;5.82;;;5.43;;
5912;SDS011;2982;42.684;23.356;2022-09-03T07:44:47;6.97;;;6.32;;
5912;SDS011;2982;42.684;23.356;2022-09-03T07:47:13;6.10;;;5.80;;
5912;SDS011;2982;42.684;23.356;2022-09-03T07:49:38;5.80;;;5.47;;
5912;SDS011;2982;42.684;23.356;2022-09-03T07:52:03;6.07;;;5.68;;
5912;SDS011;2982;42.684;23.356;2022-09-03T07:54:29;5.60;;;5.13;;
5912;SDS011;2982;42.684;23.356;2022-09-03T07:56:54;5.88;;;5.57;;
5912;SDS011;2982;42.684;23.356;2022-09-03T07:59:19;6.07;;;5.68;;
5912;SDS011;2982;42.684;23.356;2022-09-03T08:01:44;5.80;;;5.50;;
5912;SDS011;2982;42.684;23.356;2022-09-03T08:04:10;5.88;;;5.57;;
5912;SDS011;2982;42.684;23.356;2022-09-03T08:06:35;5.43;;;5.13;;
5912;SDS011;2982;42.684;23.356;2022-09-03T08:09:02;6.60;;;6.15;;
5912;SDS011;2982;42.684;23.356;2022-09-03T08:11:31;5.53;;;5.22;;
5912;SDS011;2982;42.684;23.356;2022-09-03T08:13:58;5.65;;;5.30;;
5912;SDS011;2982;42.684;23.356;2022-09-03T08:16:25;5.72;;;5.35;;
5912;SDS011;2982;42.684;23.356;2022-09-03T08:18:51;5.90;;;5.60;;
5912;SDS011;2982;42.684;23.356;2022-09-03T08:21:18;6.05;;;5.75;;
5912;SDS011;2982;42.684;23.356;2022-09-03T08:23:47;5.97;;;5.53;;
5912;SDS011;2982;42.684;23.356;2022-09-03T08:26:14;6.28;;;5.78;;
5912;SDS011;2982;42.684;23.356;2022-09-03T08:28:41;6.55;;;6.00;;
5912;SDS011;2982;42.684;23.356;2022-09-03T08:31:10;5.47;;;5.18;;
5912;SDS011;2982;42.684;23.356;2022-09-03T08:33:38;6.22;;;5.90;;
5912;SDS011;2982;42.684;23.356;2022-09-03T08:36:12;5.03;;;4.68;;
5912;SDS011;2982;42.684;23.356;2022-09-03T08:38:42;5.57;;;5.18;;
5912;SDS011;2982;42.684;23.356;2022-09-03T08:41:11;5.20;;;4.80;;
5912;SDS011;2982;42.684;23.356;2022-09-03T08:46:34;4.30;;;4.05;;
5912;SDS011;2982;42.684;23.356;2022-09-03T08:49:08;5.50;;;4.57;;
5912;SDS011;2982;42.684;23.356;2022-09-03T08:51:37;5.20;;;4.88;;
5912;SDS011;2982;42.684;23.356;2022-09-03T08:54:02;4.75;;;4.45;;
5912;SDS011;2982;42.684;23.356;2022-09-03T08:56:29;4.57;;;4.18;;
5912;SDS011;2982;42.684;23.356;2022-09-03T08:58:56;4.63;;;4.30;;
5912;SDS011;2982;42.684;23.356;2022-09-03T09:04:23;4.13;;;3.92;;
5912;SDS011;2982;42.684;23.356;2022-09-03T09:07:02;4.28;;;4.07;;
5912;SDS011;2982;42.684;23.356;2022-09-03T09:12:34;4.50;;;4.18;;
5912;SDS011;2982;42.684;23.356;2022-09-03T09:23:30;4.70;;;4.50;;
5912;SDS011;2982;42.684;23.356;2022-09-03T09:26:03;4.55;;;4.25;;
5912;SDS011;2982;42.684;23.356;2022-09-03T09:28:34;4.10;;;3.90;;
5912;SDS011;2982;42.684;23.356;2022-09-03T09:31:02;4.40;;;4.07;;
5912;SDS011;2982;42.684;23.356;2022-09-03T09:33:30;5.30;;;3.75;;
5912;SDS011;2982;42.684;23.356;2022-09-03T09:35:58;3.50;;;3.40;;
5912;SDS011;2982;42.684;23.356;2022-09-03T09:38:30;3.85;;;3.65;;
5912;SDS011;2982;42.684;23.356;2022-09-03T09:41:08;4.50;;;4.20;;
5912;SDS011;2982;42.684;23.356;2022-09-03T09:43:43;5.07;;;4.78;;
5912;SDS011;2982;42.684;23.356;2022-09-03T09:46:13;5.03;;;4.72;;
5912;SDS011;2982;42.684;23.356;2022-09-03T09:48:44;5.03;;;4.57;;
5912;SDS011;2982;42.684;23.356;2022-09-03T09:53:45;4.50;;;4.15;;
5912;SDS011;2982;42.684;23.356;2022-09-03T09:56:20;4.18;;;3.97;;
5912;SDS011;2982;42.684;23.356;2022-09-03T09:58:47;4.18;;;3.97;;
5912;SDS011;2982;42.684;23.356;2022-09-03T10:01:21;3.83;;;3.63;;
5912;SDS011;2982;42.684;23.356;2022-09-03T10:03:51;3.70;;;3.50;;
5912;SDS011;2982;42.684;23.356;2022-09-03T10:06:24;4.90;;;4.63;;
5912;SDS011;2982;42.684;23.356;2022-09-03T10:09:06;4.30;;;4.10;;
5912;SDS011;2982;42.684;23.356;2022-09-03T10:11:34;4.35;;;4.15;;
5912;SDS011;2982;42.684;23.356;2022-09-03T10:14:02;4.00;;;3.75;;
5912;SDS011;2982;42.684;23.356;2022-09-03T10:16:32;3.55;;;3.35;;
5912;SDS011;2982;42.684;23.356;2022-09-03T10:19:15;3.65;;;3.45;;
5912;SDS011;2982;42.684;23.356;2022-09-03T10:22:05;3.78;;;3.58;;
5912;SDS011;2982;42.684;23.356;2022-09-03T10:27:21;3.85;;;3.65;;
5912;SDS011;2982;42.684;23.356;2022-09-03T10:29:46;4.57;;;4.38;;
5912;SDS011;2982;42.684;23.356;2022-09-03T10:32:32;5.32;;;4.93;;
5912;SDS011;2982;42.684;23.356;2022-09-03T10:40:39;4.60;;;4.40;;
5912;SDS011;2982;42.684;23.356;2022-09-03T10:45:38;3.90;;;3.70;;
5912;SDS011;2982;42.684;23.356;2022-09-03T10:53:31;5.30;;;5.00;;
5912;SDS011;2982;42.684;23.356;2022-09-03T11:08:09;4.15;;;3.85;;
5912;SDS011;2982;42.684;23.356;2022-09-03T11:10:42;3.65;;;3.45;;
5912;SDS011;2982;42.684;23.356;2022-09-03T11:13:32;3.75;;;3.55;;
5912;SDS011;2982;42.684;23.356;2022-09-03T11:16:05;3.17;;;3.08;;
5912;SDS011;2982;42.684;23.356;2022-09-03T11:18:35;3.40;;;3.20;;
5912;SDS011;2982;42.684;23.356;2022-09-03T11:21:08;3.30;;;3.15;;
5912;SDS011;2982;42.684;23.356;2022-09-03T11:23:38;4.15;;;3.65;;
5912;SDS011;2982;42.684;23.356;2022-09-03T11:26:07;3.72;;;3.53;;
5912;SDS011;2982;42.684;23.356;2022-09-03T11:34:14;4.18;;;3.95;;
5912;SDS011;2982;42.684;23.356;2022-09-03T11:39:43;4.00;;;3.80;;
5912;SDS011;2982;42.684;23.356;2022-09-03T11:42:36;4.05;;;3.78;;
5912;SDS011;2982;42.684;23.356;2022-09-03T11:47:57;3.67;;;3.47;;
5912;SDS011;2982;42.684;23.356;2022-09-03T11:58:33;4.45;;;4.25;;
5912;SDS011;2982;42.684;23.356;2022-09-03T12:01:01;4.35;;;4.05;;
5912;SDS011;2982;42.684;23.356;2022-09-03T12:19:40;3.85;;;3.55;;
5912;SDS011;2982;42.684;23.356;2022-09-03T12:22:13;4.72;;;4.32;;
5912;SDS011;2982;42.684;23.356;2022-09-03T12:24:40;4.07;;;3.88;;
5912;SDS011;2982;42.684;23.356;2022-09-03T12:27:06;5.03;;;4.63;;
5912;SDS011;2982;42.684;23.356;2022-09-03T12:29:34;4.63;;;4.32;;
5912;SDS011;2982;42.684;23.356;2022-09-03T12:32:07;4.10;;;3.90;;
5912;SDS011;2982;42.684;23.356;2022-09-03T12:34:42;4.25;;;4.05;;
5912;SDS011;2982;42.684;23.356;2022-09-03T12:37:16;4.45;;;4.25;;
5912;SDS011;2982;42.684;23.356;2022-09-03T12:39:49;4.10;;;3.85;;
5912;SDS011;2982;42.684;23.356;2022-09-03T12:42:29;4.88;;;4.50;;
5912;SDS011;2982;42.684;23.356;2022-09-03T12:45:06;5.15;;;4.72;;
5912;SDS011;2982;42.684;23.356;2022-09-03T12:47:37;4.28;;;3.95;;
5912;SDS011;2982;42.684;23.356;2022-09-03T12:50:13;3.90;;;3.70;;
5912;SDS011;2982;42.684;23.356;2022-09-03T12:55:51;4.50;;;4.18;;
5912;SDS011;2982;42.684;23.356;2022-09-03T12:58:02;4.28;;;4.07;;
5912;SDS011;2982;42.684;23.356;2022-09-03T13:00:32;4.15;;;3.95;;
5912;SDS011;2982;42.684;23.356;2022-09-03T13:05:42;4.07;;;3.78;;
5912;SDS011;2982;42.684;23.356;2022-09-03T13:08:16;3.00;;;2.90;;
5912;SDS011;2982;42.684;23.356;2022-09-03T13:10:48;2.47;;;2.38;;
5912;SDS011;2982;42.684;23.356;2022-09-03T13:21:45;3.28;;;3.00;;
5912;SDS011;2982;42.684;23.356;2022-09-03T13:31:25;3.63;;;3.42;;
5912;SDS011;2982;42.684;23.356;2022-09-03T13:33:31;3.38;;;3.17;;
5912;SDS011;2982;42.684;23.356;2022-09-03T13:36:25;3.78;;;3.58;;
5912;SDS011;2982;42.684;23.356;2022-09-03T13:38:58;3.35;;;3.15;;
5912;SDS011;2982;42.684;23.356;2022-09-03T13:43:56;2.72;;;2.60;;
5912;SDS011;2982;42.684;23.356;2022-09-03T13:46:28;2.58;;;2.47;;
5912;SDS011;2982;42.684;23.356;2022-09-03T13:49:12;2.40;;;2.30;;
5912;SDS011;2982;42.684;23.356;2022-09-03T13:54:19;2.90;;;2.70;;
5912;SDS011;2982;42.684;23.356;2022-09-03T13:56:54;2.85;;;2.65;;
5912;SDS011;2982;42.684;23.356;2022-09-03T14:08:07;2.67;;;2.13;;
5912;SDS011;2982;42.684;23.356;2022-09-03T14:10:51;2.58;;;2.47;;
5912;SDS011;2982;42.684;23.356;2022-09-03T14:13:27;2.58;;;2.47;;
5912;SDS011;2982;42.684;23.356;2022-09-03T14:26:59;2.53;;;2.42;;
5912;SDS011;2982;42.684;23.356;2022-09-03T14:29:27;2.72;;;2.60;;
5912;SDS011;2982;42.684;23.356;2022-09-03T14:37:38;3.45;;;3.25;;
5912;SDS011;2982;42.684;23.356;2022-09-03T14:40:36;3.25;;;3.05;;
5912;SDS011;2982;42.684;23.356;2022-09-03T14:59:16;2.40;;;2.30;;
5912;SDS011;2982;42.684;23.356;2022-09-03T15:01:44;2.33;;;2.22;;
5912;SDS011;2982;42.684;23.356;2022-09-03T15:15:51;2.90;;;2.80;;
5912;SDS011;2982;42.684;23.356;2022-09-03T15:35:08;6.57;;;3.08;;
5912;SDS011;2982;42.684;23.356;2022-09-03T15:37:56;3.10;;;2.90;;
5912;SDS011;2982;42.684;23.356;2022-09-03T15:41:09;3.20;;;3.00;;
5912;SDS011;2982;42.684;23.356;2022-09-03T15:43:18;4.25;;;3.70;;
5912;SDS011;2982;42.684;23.356;2022-09-03T15:45:53;5.28;;;4.43;;
5912;SDS011;2982;42.684;23.356;2022-09-03T15:48:42;3.95;;;3.65;;
5912;SDS011;2982;42.684;23.356;2022-09-03T15:56:42;4.47;;;4.15;;
5912;SDS011;2982;42.684;23.356;2022-09-03T16:02:14;6.88;;;4.68;;
5912;SDS011;2982;42.684;23.356;2022-09-03T16:07:47;5.63;;;5.32;;
5912;SDS011;2982;42.684;23.356;2022-09-03T16:10:47;5.47;;;5.15;;
5912;SDS011;2982;42.684;23.356;2022-09-03T16:13:46;5.15;;;4.90;;
5912;SDS011;2982;42.684;23.356;2022-09-03T16:19:26;6.38;;;5.68;;
5912;SDS011;2982;42.684;23.356;2022-09-03T16:21:58;5.10;;;4.70;;
5912;SDS011;2982;42.684;23.356;2022-09-03T16:24:44;5.80;;;4.97;;
5912;SDS011;2982;42.684;23.356;2022-09-03T16:27:34;5.70;;;5.30;;
5912;SDS011;2982;42.684;23.356;2022-09-03T16:52:20;6.63;;;6.03;;
5912;SDS011;2982;42.684;23.356;2022-09-03T16:55:00;6.22;;;5.72;;
5912;SDS011;2982;42.684;23.356;2022-09-03T17:01:05;6.65;;;6.07;;
5912;SDS011;2982;42.684;23.356;2022-09-03T17:09:44;6.55;;;6.15;;
5912;SDS011;2982;42.684;23.356;2022-09-03T17:18:36;6.95;;;6.38;;
5912;SDS011;2982;42.684;23.356;2022-09-03T17:23:53;6.72;;;6.22;;
5912;SDS011;2982;42.684;23.356;2022-09-03T17:35:19;7.22;;;6.65;;
5912;SDS011;2982;42.684;23.356;2022-09-03T17:37:59;5.97;;;5.68;;
5912;SDS011;2982;42.684;23.356;2022-09-03T17:40:31;6.03;;;5.53;;
5912;SDS011;2982;42.684;23.356;2022-09-03T17:43:23;7.00;;;6.40;;
5912;SDS011;2982;42.684;23.356;2022-09-03T17:46:03;5.75;;;5.25;;
5912;SDS011;2982;42.684;23.356;2022-09-03T17:51:14;6.28;;;5.88;;
5912;SDS011;2982;42.684;23.356;2022-09-03T17:54:33;6.45;;;6.05;;
5912;SDS011;2982;42.684;23.356;2022-09-03T18:16:25;6.50;;;6.07;;
5912;SDS011;2982;42.684;23.356;2022-09-03T18:18:51;6.97;;;6.43;;
5912;SDS011;2982;42.684;23.356;2022-09-03T18:21:22;6.55;;;6.25;;
5912;SDS011;2982;42.684;23.356;2022-09-03T18:26:26;7.05;;;6.50;;
5912;SDS011;2982;42.684;23.356;2022-09-03T18:29:02;7.15;;;6.75;;
5912;SDS011;2982;42.684;23.356;2022-09-03T18:31:31;6.82;;;6.43;;
5912;SDS011;2982;42.684;23.356;2022-09-03T18:33:56;6.30;;;5.90;;
5912;SDS011;2982;42.684;23.356;2022-09-03T18:36:21;7.43;;;7.00;;
5912;SDS011;2982;42.684;23.356;2022-09-03T18:38:47;7.40;;;6.97;;
5912;SDS011;2982;42.684;23.356;2022-09-03T18:51:32;7.80;;;7.25;;
5912;SDS011;2982;42.684;23.356;2022-09-03T18:54:16;7.30;;;6.45;;
5912;SDS011;2982;42.684;23.356;2022-09-03T18:56:52;7.97;;;7.22;;
5912;SDS011;2982;42.684;23.356;2022-09-03T19:02:59;22.17;;;10.38;;
5912;SDS011;2982;42.684;23.356;2022-09-03T19:22:03;8.90;;;8.30;;
5912;SDS011;2982;42.684;23.356;2022-09-03T19:24:33;8.60;;;8.05;;
5912;SDS011;2982;42.684;23.356;2022-09-03T19:32:44;8.52;;;7.88;;
5912;SDS011;2982;42.684;23.356;2022-09-03T19:35:22;11.88;;;9.10;;
5912;SDS011;2982;42.684;23.356;2022-09-03T19:38:04;19.15;;;8.77;;
5912;SDS011;2982;42.684;23.356;2022-09-03T19:43:40;9.13;;;7.93;;
5912;SDS011;2982;42.684;23.356;2022-09-03T19:46:18;11.05;;;9.25;;
5912;SDS011;2982;42.684;23.356;2022-09-03T19:54:21;11.25;;;10.25;;
5912;SDS011;2982;42.684;23.356;2022-09-03T19:56:49;11.02;;;9.38;;
5912;SDS011;2982;42.684;23.356;2022-09-03T19:59:17;10.45;;;9.40;;
5912;SDS011;2982;42.684;23.356;2022-09-03T20:01:44;9.25;;;8.57;;
5912;SDS011;2982;42.684;23.356;2022-09-03T20:04:11;8.82;;;8.15;;
5912;SDS011;2982;42.684;23.356;2022-09-03T20:06:38;9.43;;;8.52;;
5912;SDS011;2982;42.684;23.356;2022-09-03T20:09:07;15.38;;;9.38;;
5912;SDS011;2982;42.684;23.356;2022-09-03T20:11:34;10.70;;;9.73;;
5912;SDS011;2982;42.684;23.356;2022-09-03T20:14:01;10.45;;;9.48;;
5912;SDS011;2982;42.684;23.356;2022-09-03T20:16:38;11.55;;;9.75;;
5912;SDS011;2982;42.684;23.356;2022-09-03T20:30:46;9.82;;;9.00;;
5912;SDS011;2982;42.684;23.356;2022-09-03T20:33:31;10.30;;;9.20;;
5912;SDS011;2982;42.684;23.356;2022-09-03T20:39:30;13.32;;;10.15;;
5912;SDS011;2982;42.684;23.356;2022-09-03T20:44:50;12.55;;;10.70;;
5912;SDS011;2982;42.684;23.356;2022-09-03T20:53:01;11.10;;;10.23;;
5912;SDS011;2982;42.684;23.356;2022-09-03T20:55:42;12.10;;;10.00;;
5912;SDS011;2982;42.684;23.356;2022-09-03T20:58:21;10.27;;;9.52;;
5912;SDS011;2982;42.684;23.356;2022-09-03T21:01:07;11.15;;;10.15;;
5912;SDS011;2982;42.684;23.356;2022-09-03T21:09:00;10.93;;;9.85;;
5912;SDS011;2982;42.684;23.356;2022-09-03T21:14:21;11.50;;;10.40;;
5912;SDS011;2982;42.684;23.356;2022-09-03T21:16:58;9.93;;;9.02;;
5912;SDS011;2982;42.684;23.356;2022-09-03T21:25:11;11.18;;;9.98;;
5912;SDS011;2982;42.684;23.356;2022-09-03T21:27:42;11.43;;;10.02;;
5912;SDS011;2982;42.684;23.356;2022-09-03T21:30:13;12.98;;;10.75;;
5912;SDS011;2982;42.684;23.356;2022-09-03T21:32:44;10.88;;;9.98;;
5912;SDS011;2982;42.684;23.356;2022-09-03T21:35:16;10.07;;;9.20;;
5912;SDS011;2982;42.684;23.356;2022-09-03T21:37:57;13.10;;;9.77;;
5912;SDS011;2982;42.684;23.356;2022-09-03T21:40:28;10.80;;;9.70;;
5912;SDS011;2982;42.684;23.356;2022-09-03T21:42:55;24.75;;;21.95;;
5912;SDS011;2982;42.684;23.356;2022-09-03T21:48:09;20.38;;;15.48;;
5912;SDS011;2982;42.684;23.356;2022-09-03T22:01:10;10.80;;;9.90;;
5912;SDS011;2982;42.684;23.356;2022-09-03T22:03:43;11.02;;;9.80;;
5912;SDS011;2982;42.684;23.356;2022-09-03T22:06:11;10.00;;;9.20;;
5912;SDS011;2982;42.684;23.356;2022-09-03T22:08:45;11.57;;;10.38;;
5912;SDS011;2982;42.684;23.356;2022-09-03T22:11:20;12.27;;;11.07;;
5912;SDS011;2982;42.684;23.356;2022-09-03T22:13:54;10.77;;;10.07;;
5912;SDS011;2982;42.684;23.356;2022-09-03T22:16:32;11.48;;;10.45;;
5912;SDS011;2982;42.684;23.356;2022-09-03T22:19:02;11.63;;;10.43;;
5912;SDS011;2982;42.684;23.356;2022-09-03T22:21:34;13.10;;;11.57;;
5912;SDS011;2982;42.684;23.356;2022-09-03T22:27:26;11.65;;;10.68;;
5912;SDS011;2982;42.684;23.356;2022-09-03T22:30:09;11.63;;;10.73;;
5912;SDS011;2982;42.684;23.356;2022-09-03T22:37:52;12.50;;;11.15;;
5912;SDS011;2982;42.684;23.356;2022-09-03T22:40:45;13.60;;;12.35;;
5912;SDS011;2982;42.684;23.356;2022-09-03T22:46:13;14.43;;;12.05;;
5912;SDS011;2982;42.684;23.356;2022-09-03T22:52:21;12.20;;;11.18;;